Ophir, Colorado
Current Conditions -  °F | °C
As of 2:35 PM on Friday 24 Oct 2014 (Local Time) from KTEX Reporting Station
Clear Clear  
Wind Chill: 65°   Ceiling: Unl
Heat Index: 65°   Visibility: 10mi
Dew Point: 19°   Wind: 9mph
Humidity: 17%   Direction: 260°W
Pressure: 30.49"   Gusts: NA
Location:  37.86°N, 107.83°W
Report Text: KTEX 242035Z AUTO 26008KT 10SM CLR 18/M07 A3049 RMK AO2 T01831075
Loading
Personal Weather Stations






























Interactive Weather Map
Tropical Storm Tracking
New forecast layout! Learn more

10-Day Weather Forecast

Advertisements
Track Severe Weather on mobile